createdAt,value
2023-04-04T00:00:24.347Z,3.72
2023-04-04T00:02:50.963Z,3.63
2023-04-04T00:05:17.746Z,3.90
2023-04-04T00:07:47.519Z,4.07
2023-04-04T00:10:14.537Z,3.70
2023-04-04T00:12:41.613Z,3.78
2023-04-04T00:15:08.459Z,3.80
2023-04-04T00:17:34.969Z,4.30
2023-04-04T00:20:01.822Z,3.28
2023-04-04T00:22:28.375Z,4.50
2023-04-04T00:24:55.006Z,5.10
2023-04-04T00:27:21.606Z,4.43
2023-04-04T00:29:48.686Z,4.18
2023-04-04T00:32:16.417Z,4.47
2023-04-04T00:34:43.272Z,4.60
2023-04-04T00:37:12.402Z,4.55
2023-04-04T00:39:38.970Z,4.55
2023-04-04T00:42:06.513Z,4.00
2023-04-04T00:44:33.365Z,4.40
2023-04-04T00:47:00.048Z,4.35
2023-04-04T00:49:27.047Z,6.40
2023-04-04T00:51:54.549Z,5.70
2023-04-04T00:54:21.170Z,5.20
2023-04-04T00:56:47.786Z,5.72
2023-04-04T00:59:14.523Z,4.50
2023-04-04T01:01:41.953Z,4.43
2023-04-04T01:04:08.624Z,3.97
2023-04-04T01:06:36.000Z,3.90
2023-04-04T01:09:02.864Z,4.85
2023-04-04T01:11:29.393Z,4.30
2023-04-04T01:13:56.311Z,4.30
2023-04-04T01:16:24.171Z,5.47
2023-04-04T01:18:52.074Z,3.70
2023-04-04T01:21:21.862Z,4.85
2023-04-04T01:24:01.469Z,4.50
2023-04-04T01:26:36.068Z,4.47
2023-04-04T01:29:04.180Z,5.25
2023-04-04T01:31:51.207Z,3.63
2023-04-04T01:34:24.392Z,4.18
2023-04-04T01:37:06.541Z,5.68
2023-04-04T01:39:48.188Z,4.63
2023-04-04T01:42:15.437Z,4.03
2023-04-04T01:44:44.124Z,5.28
2023-04-04T01:47:13.023Z,3.67
2023-04-04T01:49:39.893Z,4.30
2023-04-04T01:52:07.386Z,4.28
2023-04-04T01:54:35.956Z,4.28
2023-04-04T01:57:02.817Z,3.85
2023-04-04T01:59:29.553Z,4.70
2023-04-04T02:01:59.535Z,4.30
2023-04-04T02:04:26.312Z,3.75
2023-04-04T02:06:52.999Z,3.22
2023-04-04T02:09:19.540Z,3.80
2023-04-04T02:11:46.879Z,5.22
2023-04-04T02:14:13.457Z,3.08
2023-04-04T02:16:40.205Z,2.75
2023-04-04T02:19:06.836Z,4.13
2023-04-04T02:21:37.075Z,4.45
2023-04-04T02:24:03.745Z,4.88
2023-04-04T02:26:30.529Z,4.35
2023-04-04T02:28:58.241Z,4.93
2023-04-04T02:31:24.829Z,4.78
2023-04-04T02:33:51.558Z,4.10
2023-04-04T02:36:19.984Z,5.07
2023-04-04T02:38:48.017Z,4.55
2023-04-04T02:41:14.950Z,5.00
2023-04-04T02:43:41.506Z,4.10
2023-04-04T02:46:20.613Z,4.63
2023-04-04T02:48:52.027Z,4.97
2023-04-04T02:51:18.818Z,4.07
2023-04-04T02:53:45.557Z,3.72
2023-04-04T02:56:19.636Z,4.50
2023-04-04T02:58:46.575Z,3.65
2023-04-04T03:01:13.282Z,3.83
2023-04-04T03:03:40.067Z,5.45
2023-04-04T03:06:06.759Z,4.45
2023-04-04T03:08:34.963Z,4.32
2023-04-04T03:11:02.026Z,3.90
2023-04-04T03:13:28.703Z,6.53
2023-04-04T03:16:03.382Z,4.45
2023-04-04T03:18:39.065Z,5.55
2023-04-04T03:21:06.296Z,5.38
2023-04-04T03:23:32.991Z,3.58
2023-04-04T03:25:59.476Z,4.78
2023-04-04T03:28:26.608Z,4.70
2023-04-04T03:30:53.360Z,6.38
2023-04-04T03:33:19.903Z,4.72
2023-04-04T03:35:46.621Z,6.43
2023-04-04T03:38:13.856Z,5.50
2023-04-04T03:40:41.894Z,5.13
2023-04-04T03:43:12.337Z,4.88
2023-04-04T03:45:40.107Z,4.55
2023-04-04T03:48:09.506Z,5.93
2023-04-04T03:50:37.592Z,5.22
2023-04-04T03:53:04.084Z,4.90
2023-04-04T03:55:30.785Z,5.32
2023-04-04T03:57:59.443Z,5.97
2023-04-04T04:00:27.243Z,4.60
2023-04-04T04:02:54.082Z,5.45
2023-04-04T04:05:20.808Z,6.15
2023-04-04T04:07:47.244Z,6.25
2023-04-04T04:10:16.936Z,4.50
2023-04-04T04:12:43.772Z,7.80
2023-04-04T04:15:11.043Z,6.00
2023-04-04T04:17:43.087Z,5.65
2023-04-04T04:20:11.873Z,5.63
2023-04-04T04:22:47.236Z,5.28
2023-04-04T04:25:14.497Z,5.40
2023-04-04T04:27:44.724Z,5.70
2023-04-04T04:30:12.821Z,5.80
2023-04-04T04:32:43.224Z,3.78
2023-04-04T04:35:10.676Z,5.85
2023-04-04T04:37:38.375Z,5.35
2023-04-04T04:40:07.123Z,5.90
2023-04-04T04:42:43.271Z,6.50
2023-04-04T04:45:10.009Z,5.20
2023-04-04T04:47:38.728Z,5.85
2023-04-04T04:50:08.320Z,6.78
2023-04-04T04:52:38.931Z,5.75
2023-04-04T04:55:05.799Z,6.25
2023-04-04T04:57:34.429Z,6.57
2023-04-04T05:00:05.692Z,6.90
2023-04-04T05:02:32.532Z,6.10
2023-04-04T05:04:59.708Z,7.35
2023-04-04T05:07:27.472Z,6.30
2023-04-04T05:09:54.197Z,5.85
2023-04-04T05:12:22.326Z,6.13
2023-04-04T05:14:51.094Z,5.32
2023-04-04T05:17:17.664Z,6.43
2023-04-04T05:19:44.356Z,7.03
2023-04-04T05:22:15.134Z,6.18
2023-04-04T05:24:46.921Z,5.97
2023-04-04T05:27:16.622Z,6.55
2023-04-04T05:29:48.346Z,7.10
2023-04-04T05:32:16.044Z,6.95
2023-04-04T05:34:49.531Z,7.70
2023-04-04T05:37:18.769Z,6.75
2023-04-04T05:39:48.919Z,6.10
2023-04-04T05:42:15.969Z,6.47
2023-04-04T05:44:47.783Z,4.95
2023-04-04T05:47:14.810Z,5.80
2023-04-04T05:49:44.847Z,5.10
2023-04-04T05:52:12.554Z,5.78
2023-04-04T05:54:39.829Z,5.22
2023-04-04T05:57:12.083Z,6.03
2023-04-04T05:59:42.472Z,6.55
2023-04-04T06:02:12.460Z,5.22
2023-04-04T06:04:45.286Z,5.40
2023-04-04T06:07:15.580Z,6.13
2023-04-04T06:09:42.545Z,4.87
2023-04-04T06:12:09.864Z,4.70
2023-04-04T06:14:36.779Z,4.67
2023-04-04T06:17:05.404Z,4.67
2023-04-04T06:19:32.083Z,5.37
2023-04-04T06:21:58.893Z,4.00
2023-04-04T06:24:26.150Z,3.93
2023-04-04T06:26:52.760Z,3.50
2023-04-04T06:29:22.847Z,4.50
2023-04-04T06:31:49.972Z,4.87
2023-04-04T06:34:22.745Z,3.87
2023-04-04T06:36:55.253Z,4.40
2023-04-04T06:39:24.672Z,5.10
2023-04-04T06:41:53.142Z,3.80
2023-04-04T06:44:24.748Z,4.23
2023-04-04T06:46:51.480Z,3.60
2023-04-04T06:49:18.124Z,3.63
2023-04-04T06:51:44.671Z,3.73
2023-04-04T06:54:11.620Z,3.83
2023-04-04T06:56:38.147Z,4.20
2023-04-04T06:59:05.145Z,3.57
2023-04-04T07:01:33.629Z,3.67
2023-04-04T07:04:00.642Z,4.23
2023-04-04T07:06:29.746Z,3.53
2023-04-04T07:08:56.470Z,3.40
2023-04-04T07:11:27.003Z,2.80
2023-04-04T07:13:53.671Z,3.43
2023-04-04T07:16:20.308Z,3.70
2023-04-04T07:18:46.959Z,3.20
2023-04-04T07:21:13.536Z,3.60
2023-04-04T07:23:40.079Z,3.60
2023-04-04T07:26:06.679Z,2.13
2023-04-04T07:28:33.681Z,3.07
2023-04-04T07:31:01.948Z,3.60
2023-04-04T07:33:28.672Z,3.00
2023-04-04T07:35:55.338Z,2.93
2023-04-04T07:38:21.983Z,3.07
2023-04-04T07:40:49.251Z,2.73
2023-04-04T07:43:15.845Z,3.63
2023-04-04T07:45:42.592Z,2.70
2023-04-04T07:48:09.292Z,3.23
2023-04-04T07:50:35.800Z,2.80
2023-04-04T07:53:02.504Z,3.20
2023-04-04T07:55:29.162Z,2.00
2023-04-04T07:57:56.224Z,1.60
2023-04-04T08:00:25.823Z,3.03
2023-04-04T08:02:56.287Z,2.17
2023-04-04T08:05:23.830Z,1.53
2023-04-04T08:07:50.581Z,2.03
2023-04-04T08:10:17.697Z,3.00
2023-04-04T08:12:45.077Z,1.67
2023-04-04T08:15:12.136Z,2.30
2023-04-04T08:17:38.918Z,1.83
2023-04-04T08:20:05.884Z,3.70
2023-04-04T08:22:33.598Z,2.40
2023-04-04T08:25:00.939Z,2.07
2023-04-04T08:27:28.169Z,2.03
2023-04-04T08:29:54.935Z,1.97
2023-04-04T08:32:22.257Z,1.90
2023-04-04T08:34:49.406Z,1.63
2023-04-04T08:37:15.940Z,2.20
2023-04-04T08:39:43.019Z,3.43
2023-04-04T08:42:10.795Z,2.70
2023-04-04T08:44:39.777Z,2.20
2023-04-04T08:47:09.226Z,1.20
2023-04-04T08:49:38.276Z,3.40
2023-04-04T08:52:06.457Z,2.50
2023-04-04T08:54:34.474Z,2.67
2023-04-04T08:57:01.699Z,2.80
2023-04-04T08:59:28.337Z,2.60
2023-04-04T09:02:13.036Z,1.83
2023-04-04T09:04:40.861Z,2.40
2023-04-04T09:07:07.841Z,1.80
2023-04-04T09:09:35.151Z,3.30
2023-04-04T09:12:02.138Z,2.87
2023-04-04T09:14:30.436Z,2.00
2023-04-04T09:16:57.495Z,3.33
2023-04-04T09:19:26.237Z,3.70
2023-04-04T09:21:53.464Z,3.10
2023-04-04T09:24:20.033Z,3.27
2023-04-04T09:26:51.514Z,2.30
2023-04-04T09:29:22.019Z,2.93
2023-04-04T09:31:49.780Z,2.10
2023-04-04T09:34:17.806Z,1.67
2023-04-04T09:36:44.589Z,3.17
2023-04-04T09:39:11.662Z,3.63
2023-04-04T09:41:39.559Z,2.50
2023-04-04T09:44:07.395Z,2.63
2023-04-04T09:46:36.585Z,2.40
2023-04-04T09:49:04.659Z,2.70
2023-04-04T09:51:41.873Z,3.20
2023-04-04T09:54:18.816Z,3.53
2023-04-04T09:56:53.334Z,1.43
2023-04-04T09:59:19.980Z,3.27
2023-04-04T10:01:46.945Z,3.30
2023-04-04T10:04:14.708Z,3.20
2023-04-04T10:06:43.495Z,2.00
2023-04-04T10:09:10.353Z,3.20
2023-04-04T10:11:38.638Z,2.33
2023-04-04T10:14:05.183Z,2.30
2023-04-04T10:16:32.246Z,2.30
2023-04-04T10:19:00.173Z,2.50
2023-04-04T10:21:27.487Z,1.87
2023-04-04T10:23:54.242Z,2.70
2023-04-04T10:26:21.016Z,2.67
2023-04-04T10:28:47.864Z,2.00
2023-04-04T10:31:14.827Z,2.87
2023-04-04T10:33:44.726Z,2.00
2023-04-04T10:36:12.576Z,2.67
2023-04-04T10:38:43.484Z,3.00
2023-04-04T10:41:10.893Z,4.00
2023-04-04T10:43:40.806Z,2.40
2023-04-04T10:46:19.187Z,2.97
2023-04-04T10:48:45.975Z,3.23
2023-04-04T10:51:12.626Z,2.53
2023-04-04T10:53:39.960Z,2.30
2023-04-04T10:56:07.042Z,3.57
2023-04-04T10:58:39.245Z,2.40
2023-04-04T11:01:07.523Z,2.93
2023-04-04T11:03:54.114Z,2.90
2023-04-04T11:06:24.106Z,3.80
2023-04-04T11:08:54.312Z,2.80
2023-04-04T11:11:23.130Z,3.10
2023-04-04T11:14:00.307Z,4.00
2023-04-04T11:16:26.943Z,3.40
2023-04-04T11:18:59.274Z,3.03
2023-04-04T11:21:31.967Z,4.70
2023-04-04T11:23:58.539Z,4.40
2023-04-04T11:26:28.301Z,3.10
2023-04-04T11:29:04.651Z,3.37
2023-04-04T11:31:35.367Z,3.83
2023-04-04T11:34:11.507Z,3.67
2023-04-04T11:36:38.721Z,3.90
2023-04-04T11:39:05.389Z,3.43
2023-04-04T11:41:45.141Z,3.90
2023-04-04T11:44:11.878Z,2.97
2023-04-04T11:46:38.482Z,3.60
2023-04-04T11:49:06.096Z,3.00
2023-04-04T11:51:32.809Z,3.00
2023-04-04T11:53:59.692Z,3.60
2023-04-04T11:56:26.270Z,4.30
2023-04-04T11:59:01.572Z,3.50
2023-04-04T12:01:31.810Z,3.43
2023-04-04T12:03:59.794Z,3.60
2023-04-04T12:06:27.163Z,4.90
2023-04-04T12:08:54.010Z,3.57
2023-04-04T12:11:21.600Z,3.80
2023-04-04T12:13:50.565Z,3.17
2023-04-04T12:16:19.432Z,3.77
2023-04-04T12:18:46.571Z,3.90
2023-04-04T12:21:13.447Z,3.80
2023-04-04T12:23:40.152Z,3.20
2023-04-04T12:26:07.239Z,3.40
2023-04-04T12:28:34.271Z,3.63
2023-04-04T12:31:05.566Z,2.13
2023-04-04T12:33:35.685Z,3.37
2023-04-04T12:36:05.459Z,2.60
2023-04-04T12:38:32.386Z,3.33
2023-04-04T12:40:59.750Z,3.07
2023-04-04T12:43:30.208Z,3.90
2023-04-04T12:45:57.863Z,3.23
2023-04-04T12:48:28.976Z,3.30
2023-04-04T12:50:59.729Z,3.90
2023-04-04T12:53:29.453Z,3.17
2023-04-04T12:56:01.565Z,3.63
2023-04-04T12:58:28.589Z,3.70
2023-04-04T13:00:55.528Z,3.90
2023-04-04T13:03:23.575Z,3.97
2023-04-04T13:05:50.927Z,3.20
2023-04-04T13:08:17.728Z,3.13
2023-04-04T13:11:00.174Z,3.23
2023-04-04T13:13:37.188Z,3.20
2023-04-04T13:16:06.864Z,2.90
2023-04-04T13:18:35.812Z,4.07
2023-04-04T13:21:02.560Z,3.87
2023-04-04T13:23:29.218Z,3.97
2023-04-04T13:25:57.136Z,3.87
2023-04-04T13:28:24.314Z,3.30
2023-04-04T13:30:50.893Z,5.10
2023-04-04T13:33:20.525Z,4.13
2023-04-04T13:35:47.077Z,3.50
2023-04-04T13:38:13.857Z,3.00
2023-04-04T13:40:41.203Z,3.90
2023-04-04T13:43:08.237Z,3.10
2023-04-04T13:45:34.922Z,3.70
2023-04-04T13:48:02.152Z,3.40
2023-04-04T13:50:28.827Z,3.90
2023-04-04T13:52:56.712Z,3.90
2023-04-04T13:55:23.354Z,3.83
2023-04-04T13:57:49.916Z,3.40
2023-04-04T14:00:17.006Z,6.10
2023-04-04T14:02:43.712Z,4.20
2023-04-04T14:05:10.590Z,4.10
2023-04-04T14:07:38.424Z,4.03
2023-04-04T14:10:05.595Z,3.70
2023-04-04T14:12:32.245Z,3.70
2023-04-04T14:14:58.967Z,4.17
2023-04-04T14:17:25.819Z,3.70
2023-04-04T14:19:52.551Z,4.23
2023-04-04T14:22:19.070Z,3.60
2023-04-04T14:24:45.918Z,4.07
2023-04-04T14:27:12.859Z,4.13
2023-04-04T14:29:39.508Z,3.70
2023-04-04T14:32:06.180Z,4.40
2023-04-04T14:34:32.912Z,3.57
2023-04-04T14:36:59.823Z,4.60
2023-04-04T14:39:26.648Z,4.30
2023-04-04T14:41:53.355Z,3.93
2023-04-04T14:44:21.878Z,4.40
2023-04-04T14:46:50.839Z,4.60
2023-04-04T14:49:17.950Z,4.20
2023-04-04T14:51:44.950Z,4.67
2023-04-04T14:54:11.549Z,5.17
2023-04-04T14:56:38.387Z,5.10
2023-04-04T14:59:06.605Z,4.23
2023-04-04T15:01:33.379Z,4.10
2023-04-04T15:04:00.057Z,5.17
2023-04-04T15:06:27.295Z,4.60
2023-04-04T15:08:53.908Z,4.00
2023-04-04T15:11:20.519Z,4.33
2023-04-04T15:13:47.134Z,5.57
2023-04-04T15:16:13.732Z,3.70
2023-04-04T15:18:40.332Z,3.20
2023-04-04T15:21:07.189Z,4.10
2023-04-04T15:23:33.694Z,4.23
2023-04-04T15:26:00.215Z,3.40
2023-04-04T15:28:27.186Z,3.40
2023-04-04T15:30:53.799Z,4.80
2023-04-04T15:33:20.436Z,3.67
2023-04-04T15:35:47.263Z,3.47
2023-04-04T15:38:13.993Z,3.70
2023-04-04T15:40:40.872Z,4.10
2023-04-04T15:43:08.966Z,4.00
2023-04-04T15:45:35.629Z,3.67
2023-04-04T15:48:02.895Z,4.87
2023-04-04T15:50:30.011Z,3.70
2023-04-04T15:52:56.863Z,3.90
2023-04-04T15:55:23.465Z,4.53
2023-04-04T15:57:50.355Z,4.27
2023-04-04T16:00:17.589Z,3.30
2023-04-04T16:02:44.287Z,4.50
2023-04-04T16:05:11.224Z,3.57
2023-04-04T16:07:37.934Z,3.50
2023-04-04T16:10:04.688Z,4.57
2023-04-04T16:12:31.508Z,3.60
2023-04-04T16:14:58.156Z,4.00
2023-04-04T16:17:26.157Z,4.73
2023-04-04T16:19:53.010Z,3.20
2023-04-04T16:22:19.571Z,4.70
2023-04-04T16:24:46.137Z,3.53
2023-04-04T16:27:12.701Z,4.47
2023-04-04T16:29:39.225Z,4.63
2023-04-04T16:32:07.851Z,5.80
2023-04-04T16:34:36.770Z,5.60
2023-04-04T16:37:04.218Z,5.17
2023-04-04T16:39:30.812Z,4.60
2023-04-04T16:41:57.851Z,3.90
2023-04-04T16:44:24.528Z,6.50
2023-04-04T16:46:51.068Z,4.50
2023-04-04T16:49:17.643Z,5.47
2023-04-04T16:51:44.147Z,4.40
2023-04-04T16:54:11.377Z,4.93
2023-04-04T16:56:38.729Z,4.50
2023-04-04T16:59:05.520Z,5.20
2023-04-04T17:01:32.087Z,5.07
2023-04-04T17:03:59.095Z,5.20
2023-04-04T17:06:25.784Z,3.80
2023-04-04T17:08:52.496Z,4.70
2023-04-04T17:11:19.016Z,3.83
2023-04-04T17:13:46.077Z,4.57
2023-04-04T17:16:12.791Z,4.67
2023-04-04T17:18:39.547Z,4.80
2023-04-04T17:21:06.362Z,5.40
2023-04-04T17:23:33.738Z,5.37
2023-04-04T17:26:00.451Z,4.20
2023-04-04T17:28:27.405Z,5.30
2023-04-04T17:30:54.127Z,4.30
2023-04-04T17:33:23.160Z,5.87
2023-04-04T17:35:49.813Z,4.40
2023-04-04T17:38:16.317Z,5.03
2023-04-04T17:40:42.868Z,5.63
2023-04-04T17:43:10.809Z,5.27
2023-04-04T17:45:37.677Z,5.17
2023-04-04T17:48:04.314Z,4.97
2023-04-04T17:50:30.921Z,5.03
2023-04-04T17:52:57.424Z,5.23
2023-04-04T17:55:23.923Z,6.03
2023-04-04T17:57:50.589Z,6.00
2023-04-04T18:00:17.248Z,5.10
2023-04-04T18:02:43.862Z,4.97
2023-04-04T18:05:11.410Z,4.97
2023-04-04T18:07:38.349Z,5.70
2023-04-04T18:10:05.334Z,5.43
2023-04-04T18:12:35.262Z,5.20
2023-04-04T18:15:02.868Z,5.50
2023-04-04T18:17:29.470Z,5.97
2023-04-04T18:19:57.399Z,5.83
2023-04-04T18:22:24.184Z,6.30
2023-04-04T18:24:50.797Z,7.30
2023-04-04T18:27:17.986Z,7.30
2023-04-04T18:29:44.694Z,6.37
2023-04-04T18:32:11.526Z,6.23
2023-04-04T18:34:38.514Z,6.13
2023-04-04T18:37:06.262Z,6.17
2023-04-04T18:39:32.744Z,6.50
2023-04-04T18:41:59.301Z,5.93
2023-04-04T18:44:26.432Z,5.43
2023-04-04T18:46:53.061Z,6.57
2023-04-04T18:49:19.589Z,7.20
2023-04-04T18:51:47.509Z,7.97
2023-04-04T18:54:14.570Z,7.10
2023-04-04T18:56:41.174Z,8.73
2023-04-04T18:59:07.930Z,6.60
2023-04-04T19:01:36.167Z,7.97
2023-04-04T19:04:03.466Z,6.63
2023-04-04T19:06:30.847Z,7.00
2023-04-04T19:08:58.911Z,8.70
2023-04-04T19:11:25.829Z,8.43
2023-04-04T19:13:52.867Z,6.63
2023-04-04T19:16:19.477Z,9.00
2023-04-04T19:18:46.270Z,9.00
2023-04-04T19:21:12.994Z,7.87
2023-04-04T19:23:39.575Z,8.53
2023-04-04T19:26:07.384Z,9.00
2023-04-04T19:28:34.122Z,7.87
2023-04-04T19:31:02.250Z,8.20
2023-04-04T19:33:32.725Z,7.90
2023-04-04T19:36:02.281Z,7.40
2023-04-04T19:38:31.893Z,6.43
2023-04-04T19:41:03.357Z,7.93
2023-04-04T19:43:30.942Z,8.07
2023-04-04T19:45:58.850Z,8.90
2023-04-04T19:48:44.377Z,7.37
2023-04-04T19:51:17.065Z,8.40
2023-04-04T19:53:44.308Z,7.53
2023-04-04T19:56:11.862Z,6.83
2023-04-04T19:58:38.936Z,7.20
2023-04-04T20:01:06.282Z,7.50
2023-04-04T20:03:37.133Z,7.23
2023-04-04T20:06:18.385Z,8.20
2023-04-04T20:08:48.787Z,8.30
2023-04-04T20:11:19.204Z,6.23
2023-04-04T20:13:46.108Z,8.97
2023-04-04T20:16:14.058Z,8.40
2023-04-04T20:18:42.627Z,8.90
2023-04-04T20:21:10.354Z,7.50
2023-04-04T20:23:39.782Z,9.17
2023-04-04T20:26:07.240Z,9.80
2023-04-04T20:28:34.894Z,8.97
2023-04-04T20:31:02.850Z,9.30
2023-04-04T20:33:29.340Z,8.67
2023-04-04T20:35:56.492Z,8.17
2023-04-04T20:38:23.242Z,7.20
2023-04-04T20:40:50.117Z,8.00
2023-04-04T20:43:16.943Z,7.40
2023-04-04T20:45:46.810Z,8.03
2023-04-04T20:48:39.170Z,8.13
2023-04-04T20:51:24.067Z,7.37
2023-04-04T20:53:51.419Z,8.73
2023-04-04T20:56:46.344Z,8.20
2023-04-04T20:59:32.069Z,8.47
2023-04-04T21:02:09.547Z,8.60
2023-04-04T21:04:36.505Z,7.97
2023-04-04T21:07:04.303Z,7.90
2023-04-04T21:09:30.897Z,8.13
2023-04-04T21:11:58.581Z,9.13
2023-04-04T21:14:30.245Z,7.90
2023-04-04T21:16:56.977Z,8.00
2023-04-04T21:19:24.030Z,9.07
2023-04-04T21:21:51.031Z,7.87
2023-04-04T21:24:17.942Z,7.43
2023-04-04T21:26:46.004Z,6.77
2023-04-04T21:29:21.413Z,7.13
2023-04-04T21:31:49.342Z,7.33
2023-04-04T21:34:16.954Z,6.80
2023-04-04T21:36:44.303Z,6.60
2023-04-04T21:39:14.960Z,6.40
2023-04-04T21:41:43.382Z,6.87
2023-04-04T21:44:10.670Z,7.37
2023-04-04T21:46:38.501Z,7.57
2023-04-04T21:49:06.084Z,7.80
2023-04-04T21:51:32.668Z,7.90
2023-04-04T21:53:59.575Z,7.23
2023-04-04T21:56:31.615Z,6.37
2023-04-04T21:59:02.220Z,6.03
2023-04-04T22:01:30.607Z,6.40
2023-04-04T22:03:57.930Z,7.23
2023-04-04T22:06:26.391Z,8.80
2023-04-04T22:08:53.735Z,6.73
2023-04-04T22:11:20.703Z,8.20
2023-04-04T22:13:48.231Z,7.67
2023-04-04T22:16:16.296Z,9.20
2023-04-04T22:18:47.049Z,8.57
2023-04-04T22:21:14.260Z,8.40
2023-04-04T22:23:41.117Z,9.53
2023-04-04T22:26:09.160Z,10.30
2023-04-04T22:28:37.693Z,10.83
2023-04-04T22:31:04.874Z,8.83
2023-04-04T22:33:33.951Z,9.60
2023-04-04T22:36:01.036Z,10.13
2023-04-04T22:38:27.967Z,8.77
2023-04-04T22:40:55.011Z,7.40
2023-04-04T22:43:21.882Z,8.60
2023-04-04T22:45:48.427Z,8.00
2023-04-04T22:48:18.680Z,7.43
2023-04-04T22:50:45.202Z,7.20
2023-04-04T22:53:13.022Z,7.17
2023-04-04T22:55:40.250Z,7.37
2023-04-04T22:58:07.058Z,7.27
2023-04-04T23:00:34.011Z,7.57
2023-04-04T23:03:02.313Z,7.47
2023-04-04T23:05:29.337Z,7.30
2023-04-04T23:08:01.311Z,8.93
2023-04-04T23:10:27.912Z,11.27
2023-04-04T23:12:54.644Z,7.53
2023-04-04T23:15:21.249Z,7.73
2023-04-04T23:17:47.805Z,8.10
2023-04-04T23:20:14.534Z,8.60
2023-04-04T23:22:41.964Z,9.13
2023-04-04T23:25:08.686Z,9.37
2023-04-04T23:27:35.621Z,10.63
2023-04-04T23:30:03.527Z,8.97
2023-04-04T23:32:31.153Z,10.07
2023-04-04T23:34:57.736Z,9.07
2023-04-04T23:37:24.309Z,9.57
2023-04-04T23:39:51.024Z,9.33
2023-04-04T23:42:17.560Z,9.00
2023-04-04T23:44:44.234Z,8.40
2023-04-04T23:47:10.991Z,9.37
2023-04-04T23:49:37.631Z,9.17
2023-04-04T23:52:05.768Z,8.87
2023-04-04T23:54:32.206Z,9.80
2023-04-04T23:56:58.699Z,8.20
2023-04-04T23:59:25.849Z,9.33
